sensor_id;sensor_type;location;lat;lon;timestamp;temperature;humidity
27224;DHT22;14965;50.660;13.226;2024-01-11T00:01:57;-7.30;99.90
27224;DHT22;14965;50.660;13.226;2024-01-11T00:04:23;-7.40;99.90
27224;DHT22;14965;50.660;13.226;2024-01-11T00:06:50;-7.40;99.90
27224;DHT22;14965;50.660;13.226;2024-01-11T00:09:16;-7.40;99.90
27224;DHT22;14965;50.660;13.226;2024-01-11T00:11:42;-7.50;99.90
27224;DHT22;14965;50.660;13.226;2024-01-11T00:14:09;-7.50;99.90
27224;DHT22;14965;50.660;13.226;2024-01-11T00:16:35;-7.60;99.90
27224;DHT22;14965;50.660;13.226;2024-01-11T00:19:01;-7.60;99.90
27224;DHT22;14965;50.660;13.226;2024-01-11T00:21:27;-7.60;99.90
27224;DHT22;14965;50.660;13.226;2024-01-11T00:23:53;-7.60;99.90
27224;DHT22;14965;50.660;13.226;2024-01-11T00:26:19;-7.60;99.90
27224;DHT22;14965;50.660;13.226;2024-01-11T00:28:45;-7.60;99.90
27224;DHT22;14965;50.660;13.226;2024-01-11T00:31:12;-7.70;99.90
27224;DHT22;14965;50.660;13.226;2024-01-11T00:33:39;-7.70;99.90
27224;DHT22;14965;50.660;13.226;2024-01-11T00:36:05;-7.70;99.90
27224;DHT22;14965;50.660;13.226;2024-01-11T00:38:31;-7.70;99.90
27224;DHT22;14965;50.660;13.226;2024-01-11T00:40:57;-7.70;99.90
27224;DHT22;14965;50.660;13.226;2024-01-11T00:43:23;-7.80;99.90
27224;DHT22;14965;50.660;13.226;2024-01-11T00:45:48;-7.80;99.90
27224;DHT22;14965;50.660;13.226;2024-01-11T00:48:16;-7.80;99.90
27224;DHT22;14965;50.660;13.226;2024-01-11T00:50:42;-7.90;99.90
27224;DHT22;14965;50.660;13.226;2024-01-11T00:53:08;-7.90;99.90
27224;DHT22;14965;50.660;13.226;2024-01-11T00:55:33;-7.90;99.90
27224;DHT22;14965;50.660;13.226;2024-01-11T00:57:59;-7.80;99.90
27224;DHT22;14965;50.660;13.226;2024-01-11T01:00:26;-7.80;99.90
27224;DHT22;14965;50.660;13.226;2024-01-11T01:02:51;-7.80;99.90
27224;DHT22;14965;50.660;13.226;2024-01-11T01:05:19;-7.80;99.90
27224;DHT22;14965;50.660;13.226;2024-01-11T01:07:45;-7.90;99.90
27224;DHT22;14965;50.660;13.226;2024-01-11T01:10:11;-7.80;99.90
27224;DHT22;14965;50.660;13.226;2024-01-11T01:12:37;-7.70;99.90
27224;DHT22;14965;50.660;13.226;2024-01-11T01:15:04;-7.90;99.90
27224;DHT22;14965;50.660;13.226;2024-01-11T01:17:30;-7.90;99.90
27224;DHT22;14965;50.660;13.226;2024-01-11T01:19:56;-7.80;99.90
27224;DHT22;14965;50.660;13.226;2024-01-11T01:22:23;-7.80;99.90
27224;DHT22;14965;50.660;13.226;2024-01-11T01:24:49;-7.70;99.90
27224;DHT22;14965;50.660;13.226;2024-01-11T01:27:16;-7.70;99.90
27224;DHT22;14965;50.660;13.226;2024-01-11T01:29:42;-7.70;99.90
27224;DHT22;14965;50.660;13.226;2024-01-11T01:32:08;-7.70;99.90
27224;DHT22;14965;50.660;13.226;2024-01-11T01:34:34;-7.80;99.90
27224;DHT22;14965;50.660;13.226;2024-01-11T01:37:00;-7.80;99.90
27224;DHT22;14965;50.660;13.226;2024-01-11T01:39:27;-7.80;99.90
27224;DHT22;14965;50.660;13.226;2024-01-11T01:41:53;-7.90;99.90
27224;DHT22;14965;50.660;13.226;2024-01-11T01:44:19;-7.90;99.90
27224;DHT22;14965;50.660;13.226;2024-01-11T01:46:45;-7.80;99.90
27224;DHT22;14965;50.660;13.226;2024-01-11T01:49:13;-7.80;99.90
27224;DHT22;14965;50.660;13.226;2024-01-11T01:51:39;-7.80;99.90
27224;DHT22;14965;50.660;13.226;2024-01-11T01:54:06;-7.80;99.90
27224;DHT22;14965;50.660;13.226;2024-01-11T01:56:33;-7.90;99.90
27224;DHT22;14965;50.660;13.226;2024-01-11T01:59:01;-7.90;99.90
27224;DHT22;14965;50.660;13.226;2024-01-11T02:01:29;-7.90;99.90
27224;DHT22;14965;50.660;13.226;2024-01-11T02:03:56;-8.00;99.90
27224;DHT22;14965;50.660;13.226;2024-01-11T02:06:25;-8.00;99.90
27224;DHT22;14965;50.660;13.226;2024-01-11T02:08:53;-8.10;99.90
27224;DHT22;14965;50.660;13.226;2024-01-11T02:11:21;-8.20;99.90
27224;DHT22;14965;50.660;13.226;2024-01-11T02:13:49;-8.20;99.90
27224;DHT22;14965;50.660;13.226;2024-01-11T02:16:15;-8.20;99.90
27224;DHT22;14965;50.660;13.226;2024-01-11T02:18:42;-8.10;99.90
27224;DHT22;14965;50.660;13.226;2024-01-11T02:21:09;-8.10;99.90
27224;DHT22;14965;50.660;13.226;2024-01-11T02:23:42;-8.20;99.90
27224;DHT22;14965;50.660;13.226;2024-01-11T02:26:10;-8.20;99.90
27224;DHT22;14965;50.660;13.226;2024-01-11T02:28:36;-8.20;99.90
27224;DHT22;14965;50.660;13.226;2024-01-11T02:31:03;-8.20;99.90
27224;DHT22;14965;50.660;13.226;2024-01-11T02:33:29;-8.10;99.90
27224;DHT22;14965;50.660;13.226;2024-01-11T02:35:55;-8.20;99.90
27224;DHT22;14965;50.660;13.226;2024-01-11T02:38:21;-8.10;99.90
27224;DHT22;14965;50.660;13.226;2024-01-11T02:40:48;-8.10;99.90
27224;DHT22;14965;50.660;13.226;2024-01-11T02:43:17;-8.00;99.90
27224;DHT22;14965;50.660;13.226;2024-01-11T02:45:43;-8.10;99.90
27224;DHT22;14965;50.660;13.226;2024-01-11T02:48:09;-8.10;99.90
27224;DHT22;14965;50.660;13.226;2024-01-11T02:50:35;-8.10;99.90
27224;DHT22;14965;50.660;13.226;2024-01-11T02:53:01;-8.10;99.90
27224;DHT22;14965;50.660;13.226;2024-01-11T02:55:27;-8.10;99.90
27224;DHT22;14965;50.660;13.226;2024-01-11T02:57:53;-8.10;99.90
27224;DHT22;14965;50.660;13.226;2024-01-11T03:00:21;-8.20;99.90
27224;DHT22;14965;50.660;13.226;2024-01-11T03:02:47;-8.20;99.90
27224;DHT22;14965;50.660;13.226;2024-01-11T03:05:14;-8.20;99.90
27224;DHT22;14965;50.660;13.226;2024-01-11T03:07:40;-8.20;99.90
27224;DHT22;14965;50.660;13.226;2024-01-11T03:10:06;-8.20;99.90
27224;DHT22;14965;50.660;13.226;2024-01-11T03:12:32;-8.20;99.90
27224;DHT22;14965;50.660;13.226;2024-01-11T03:14:58;-8.20;99.90
27224;DHT22;14965;50.660;13.226;2024-01-11T03:17:26;-8.10;99.90
27224;DHT22;14965;50.660;13.226;2024-01-11T03:19:52;-8.20;99.90
27224;DHT22;14965;50.660;13.226;2024-01-11T03:22:18;-8.20;99.90
27224;DHT22;14965;50.660;13.226;2024-01-11T03:24:44;-8.20;99.90
27224;DHT22;14965;50.660;13.226;2024-01-11T03:27:10;-8.20;99.90
27224;DHT22;14965;50.660;13.226;2024-01-11T03:29:36;-8.30;99.90
27224;DHT22;14965;50.660;13.226;2024-01-11T03:32:03;-8.20;99.90
27224;DHT22;14965;50.660;13.226;2024-01-11T03:34:30;-8.20;99.90
27224;DHT22;14965;50.660;13.226;2024-01-11T03:36:56;-8.20;99.90
27224;DHT22;14965;50.660;13.226;2024-01-11T03:39:24;-8.20;99.90
27224;DHT22;14965;50.660;13.226;2024-01-11T03:41:50;-8.20;99.90
27224;DHT22;14965;50.660;13.226;2024-01-11T03:44:16;-8.20;99.90
27224;DHT22;14965;50.660;13.226;2024-01-11T03:46:42;-8.10;99.90
27224;DHT22;14965;50.660;13.226;2024-01-11T03:49:08;-8.20;99.90
27224;DHT22;14965;50.660;13.226;2024-01-11T03:51:36;-8.20;99.90
27224;DHT22;14965;50.660;13.226;2024-01-11T03:54:02;-8.20;99.90
27224;DHT22;14965;50.660;13.226;2024-01-11T03:56:28;-8.20;99.90
27224;DHT22;14965;50.660;13.226;2024-01-11T03:58:54;-8.20;99.90
27224;DHT22;14965;50.660;13.226;2024-01-11T04:01:20;-8.20;99.90
27224;DHT22;14965;50.660;13.226;2024-01-11T04:03:47;-8.20;99.90
27224;DHT22;14965;50.660;13.226;2024-01-11T04:06:19;-8.20;99.90
27224;DHT22;14965;50.660;13.226;2024-01-11T04:08:46;-8.30;99.90
27224;DHT22;14965;50.660;13.226;2024-01-11T04:11:12;-8.30;99.90
27224;DHT22;14965;50.660;13.226;2024-01-11T04:13:39;-8.30;99.90
27224;DHT22;14965;50.660;13.226;2024-01-11T04:16:06;-8.30;99.90
27224;DHT22;14965;50.660;13.226;2024-01-11T04:18:32;-8.30;99.90
27224;DHT22;14965;50.660;13.226;2024-01-11T04:20:58;-8.30;99.90
27224;DHT22;14965;50.660;13.226;2024-01-11T04:23:24;-8.20;99.90
27224;DHT22;14965;50.660;13.226;2024-01-11T04:25:52;-8.30;99.90
27224;DHT22;14965;50.660;13.226;2024-01-11T04:28:18;-8.30;99.90
27224;DHT22;14965;50.660;13.226;2024-01-11T04:30:47;-8.30;99.90
27224;DHT22;14965;50.660;13.226;2024-01-11T04:33:13;-8.20;99.90
27224;DHT22;14965;50.660;13.226;2024-01-11T04:35:39;-8.30;99.90
27224;DHT22;14965;50.660;13.226;2024-01-11T04:38:05;-8.40;99.90
27224;DHT22;14965;50.660;13.226;2024-01-11T04:40:31;-8.40;99.90
27224;DHT22;14965;50.660;13.226;2024-01-11T04:42:59;-8.30;99.90
27224;DHT22;14965;50.660;13.226;2024-01-11T04:45:25;-8.30;99.90
27224;DHT22;14965;50.660;13.226;2024-01-11T04:47:51;-8.30;99.90
27224;DHT22;14965;50.660;13.226;2024-01-11T04:50:17;-8.30;99.90
27224;DHT22;14965;50.660;13.226;2024-01-11T04:52:43;-8.20;99.90
27224;DHT22;14965;50.660;13.226;2024-01-11T04:55:09;-8.40;99.90
27224;DHT22;14965;50.660;13.226;2024-01-11T04:57:35;-8.40;99.90
27224;DHT22;14965;50.660;13.226;2024-01-11T05:00:04;-8.30;99.90
27224;DHT22;14965;50.660;13.226;2024-01-11T05:02:31;-8.30;99.90
27224;DHT22;14965;50.660;13.226;2024-01-11T05:04:57;-8.30;99.90
27224;DHT22;14965;50.660;13.226;2024-01-11T05:07:23;-8.30;99.90
27224;DHT22;14965;50.660;13.226;2024-01-11T05:09:49;-8.30;99.90
27224;DHT22;14965;50.660;13.226;2024-01-11T05:12:15;-8.20;99.90
27224;DHT22;14965;50.660;13.226;2024-01-11T05:14:41;-8.20;99.90
27224;DHT22;14965;50.660;13.226;2024-01-11T05:17:08;-8.20;99.90
27224;DHT22;14965;50.660;13.226;2024-01-11T05:19:34;-8.20;99.90
27224;DHT22;14965;50.660;13.226;2024-01-11T05:22:00;-8.30;99.90
27224;DHT22;14965;50.660;13.226;2024-01-11T05:24:26;-8.30;99.90
27224;DHT22;14965;50.660;13.226;2024-01-11T05:26:53;-8.20;99.90
27224;DHT22;14965;50.660;13.226;2024-01-11T05:29:19;-8.20;99.90
27224;DHT22;14965;50.660;13.226;2024-01-11T05:31:45;-8.30;99.90
27224;DHT22;14965;50.660;13.226;2024-01-11T05:34:12;-8.20;99.90
27224;DHT22;14965;50.660;13.226;2024-01-11T05:36:38;-8.30;99.90
27224;DHT22;14965;50.660;13.226;2024-01-11T05:39:04;-8.20;99.90
27224;DHT22;14965;50.660;13.226;2024-01-11T05:41:30;-8.20;99.90
27224;DHT22;14965;50.660;13.226;2024-01-11T05:43:56;-8.20;99.90
27224;DHT22;14965;50.660;13.226;2024-01-11T05:46:22;-8.20;99.90
27224;DHT22;14965;50.660;13.226;2024-01-11T05:48:48;-8.30;99.90
27224;DHT22;14965;50.660;13.226;2024-01-11T05:51:16;-8.30;99.90
27224;DHT22;14965;50.660;13.226;2024-01-11T05:53:42;-8.20;99.90
27224;DHT22;14965;50.660;13.226;2024-01-11T05:56:08;-8.20;99.90
27224;DHT22;14965;50.660;13.226;2024-01-11T05:58:35;-8.30;99.90
27224;DHT22;14965;50.660;13.226;2024-01-11T06:01:01;-8.30;99.90
27224;DHT22;14965;50.660;13.226;2024-01-11T06:03:27;-8.30;99.90
27224;DHT22;14965;50.660;13.226;2024-01-11T06:05:53;-8.30;99.90
27224;DHT22;14965;50.660;13.226;2024-01-11T06:08:20;-8.20;99.90
27224;DHT22;14965;50.660;13.226;2024-01-11T06:10:46;-8.20;99.90
27224;DHT22;14965;50.660;13.226;2024-01-11T06:13:12;-8.10;99.90
27224;DHT22;14965;50.660;13.226;2024-01-11T06:15:38;-8.10;99.90
27224;DHT22;14965;50.660;13.226;2024-01-11T06:18:05;-8.10;99.90
27224;DHT22;14965;50.660;13.226;2024-01-11T06:20:31;-8.10;99.90
27224;DHT22;14965;50.660;13.226;2024-01-11T06:22:57;-8.20;99.90
27224;DHT22;14965;50.660;13.226;2024-01-11T06:25:24;-8.10;99.90
27224;DHT22;14965;50.660;13.226;2024-01-11T06:27:50;-8.10;99.90
27224;DHT22;14965;50.660;13.226;2024-01-11T06:30:16;-8.10;99.90
27224;DHT22;14965;50.660;13.226;2024-01-11T06:32:42;-8.20;99.90
27224;DHT22;14965;50.660;13.226;2024-01-11T06:35:08;-8.10;99.90
27224;DHT22;14965;50.660;13.226;2024-01-11T06:37:35;-8.10;99.90
27224;DHT22;14965;50.660;13.226;2024-01-11T06:40:01;-8.10;99.90
27224;DHT22;14965;50.660;13.226;2024-01-11T06:42:29;-8.10;99.90
27224;DHT22;14965;50.660;13.226;2024-01-11T06:44:55;-8.10;99.90
27224;DHT22;14965;50.660;13.226;2024-01-11T06:47:21;-8.10;99.90
27224;DHT22;14965;50.660;13.226;2024-01-11T06:49:47;-8.20;99.90
27224;DHT22;14965;50.660;13.226;2024-01-11T06:52:13;-8.20;99.90
27224;DHT22;14965;50.660;13.226;2024-01-11T06:54:39;-8.20;99.90
27224;DHT22;14965;50.660;13.226;2024-01-11T06:57:05;-8.10;99.90
27224;DHT22;14965;50.660;13.226;2024-01-11T06:59:33;-8.20;99.90
27224;DHT22;14965;50.660;13.226;2024-01-11T07:01:59;-8.20;99.90
27224;DHT22;14965;50.660;13.226;2024-01-11T07:04:25;-8.20;99.90
27224;DHT22;14965;50.660;13.226;2024-01-11T07:06:51;-8.30;99.90
27224;DHT22;14965;50.660;13.226;2024-01-11T07:09:17;-8.20;99.90
27224;DHT22;14965;50.660;13.226;2024-01-11T07:11:43;-8.20;99.90
27224;DHT22;14965;50.660;13.226;2024-01-11T07:14:09;-8.10;99.90
27224;DHT22;14965;50.660;13.226;2024-01-11T07:16:37;-8.00;99.90
27224;DHT22;14965;50.660;13.226;2024-01-11T07:19:03;-8.00;99.90
27224;DHT22;14965;50.660;13.226;2024-01-11T07:21:29;-8.10;99.90
27224;DHT22;14965;50.660;13.226;2024-01-11T07:23:55;-8.10;99.90
27224;DHT22;14965;50.660;13.226;2024-01-11T07:26:21;-8.10;99.90
27224;DHT22;14965;50.660;13.226;2024-01-11T07:28:47;-8.00;99.90
27224;DHT22;14965;50.660;13.226;2024-01-11T07:31:13;-7.90;99.90
27224;DHT22;14965;50.660;13.226;2024-01-11T07:33:41;-7.80;99.90
27224;DHT22;14965;50.660;13.226;2024-01-11T07:36:07;-7.80;99.90
27224;DHT22;14965;50.660;13.226;2024-01-11T07:38:33;-7.70;99.90
27224;DHT22;14965;50.660;13.226;2024-01-11T07:40:59;-7.70;99.90
27224;DHT22;14965;50.660;13.226;2024-01-11T07:43:25;-7.60;99.90
27224;DHT22;14965;50.660;13.226;2024-01-11T07:45:51;-7.60;99.90
27224;DHT22;14965;50.660;13.226;2024-01-11T07:48:17;-7.40;99.90
27224;DHT22;14965;50.660;13.226;2024-01-11T07:50:44;-7.40;99.90
27224;DHT22;14965;50.660;13.226;2024-01-11T07:53:10;-7.30;99.90
27224;DHT22;14965;50.660;13.226;2024-01-11T07:55:36;-7.20;99.90
27224;DHT22;14965;50.660;13.226;2024-01-11T07:58:02;-7.20;99.90
27224;DHT22;14965;50.660;13.226;2024-01-11T08:00:28;-7.20;99.90
27224;DHT22;14965;50.660;13.226;2024-01-11T08:02:54;-7.20;99.90
27224;DHT22;14965;50.660;13.226;2024-01-11T08:05:20;-7.00;99.90
27224;DHT22;14965;50.660;13.226;2024-01-11T08:07:48;-6.90;99.90
27224;DHT22;14965;50.660;13.226;2024-01-11T08:10:14;-6.70;99.90
27224;DHT22;14965;50.660;13.226;2024-01-11T08:12:39;-6.60;99.90
27224;DHT22;14965;50.660;13.226;2024-01-11T08:15:06;-6.60;99.90
27224;DHT22;14965;50.660;13.226;2024-01-11T08:17:32;-6.60;99.90
27224;DHT22;14965;50.660;13.226;2024-01-11T08:19:59;-6.50;99.90
27224;DHT22;14965;50.660;13.226;2024-01-11T08:22:25;-6.50;99.90
27224;DHT22;14965;50.660;13.226;2024-01-11T08:24:52;-6.40;99.90
27224;DHT22;14965;50.660;13.226;2024-01-11T08:27:18;-6.30;99.90
27224;DHT22;14965;50.660;13.226;2024-01-11T08:29:44;-6.30;99.90
27224;DHT22;14965;50.660;13.226;2024-01-11T08:32:10;-6.20;99.90
27224;DHT22;14965;50.660;13.226;2024-01-11T08:34:36;-6.10;99.90
27224;DHT22;14965;50.660;13.226;2024-01-11T08:37:02;-6.00;99.90
27224;DHT22;14965;50.660;13.226;2024-01-11T08:39:28;-6.00;99.90
27224;DHT22;14965;50.660;13.226;2024-01-11T08:41:55;-6.00;99.90
27224;DHT22;14965;50.660;13.226;2024-01-11T08:44:21;-5.90;99.90
27224;DHT22;14965;50.660;13.226;2024-01-11T08:46:47;-5.90;99.90
27224;DHT22;14965;50.660;13.226;2024-01-11T08:49:12;-5.80;99.90
27224;DHT22;14965;50.660;13.226;2024-01-11T08:51:38;-5.80;99.90
27224;DHT22;14965;50.660;13.226;2024-01-11T08:54:04;-5.70;99.90
27224;DHT22;14965;50.660;13.226;2024-01-11T08:56:30;-5.80;99.90
27224;DHT22;14965;50.660;13.226;2024-01-11T08:58:57;-5.90;99.90
27224;DHT22;14965;50.660;13.226;2024-01-11T09:01:23;-5.80;99.90
27224;DHT22;14965;50.660;13.226;2024-01-11T09:03:49;-5.80;99.90
27224;DHT22;14965;50.660;13.226;2024-01-11T09:06:15;-5.80;99.90
27224;DHT22;14965;50.660;13.226;2024-01-11T09:08:41;-5.80;99.90
27224;DHT22;14965;50.660;13.226;2024-01-11T09:11:06;-5.70;99.90
27224;DHT22;14965;50.660;13.226;2024-01-11T09:13:32;-5.80;99.90
27224;DHT22;14965;50.660;13.226;2024-01-11T09:15:59;-5.60;99.90
27224;DHT22;14965;50.660;13.226;2024-01-11T09:18:25;-5.50;99.90
27224;DHT22;14965;50.660;13.226;2024-01-11T09:20:51;-5.30;99.90
27224;DHT22;14965;50.660;13.226;2024-01-11T09:23:17;-5.20;99.90
27224;DHT22;14965;50.660;13.226;2024-01-11T09:25:43;-5.00;99.90
27224;DHT22;14965;50.660;13.226;2024-01-11T09:28:09;-4.90;99.90
27224;DHT22;14965;50.660;13.226;2024-01-11T09:30:35;-4.80;99.90
27224;DHT22;14965;50.660;13.226;2024-01-11T09:33:02;-4.70;99.90
27224;DHT22;14965;50.660;13.226;2024-01-11T09:35:29;-4.60;99.90
27224;DHT22;14965;50.660;13.226;2024-01-11T09:37:55;-4.50;99.90
27224;DHT22;14965;50.660;13.226;2024-01-11T09:40:21;-4.40;99.90
27224;DHT22;14965;50.660;13.226;2024-01-11T09:42:47;-4.30;99.90
27224;DHT22;14965;50.660;13.226;2024-01-11T09:45:14;-4.30;99.90
27224;DHT22;14965;50.660;13.226;2024-01-11T09:47:40;-4.20;99.90
27224;DHT22;14965;50.660;13.226;2024-01-11T09:50:09;-4.20;99.90
27224;DHT22;14965;50.660;13.226;2024-01-11T09:52:36;-4.10;99.90
27224;DHT22;14965;50.660;13.226;2024-01-11T09:55:05;-4.00;99.90
27224;DHT22;14965;50.660;13.226;2024-01-11T09:57:32;-3.80;99.90
27224;DHT22;14965;50.660;13.226;2024-01-11T10:00:04;-3.70;99.90
27224;DHT22;14965;50.660;13.226;2024-01-11T10:02:31;-3.60;99.90
27224;DHT22;14965;50.660;13.226;2024-01-11T10:04:57;-3.30;99.90
27224;DHT22;14965;50.660;13.226;2024-01-11T10:07:24;-3.20;99.90
27224;DHT22;14965;50.660;13.226;2024-01-11T10:09:50;-3.10;99.90
27224;DHT22;14965;50.660;13.226;2024-01-11T10:12:17;-3.00;99.90
27224;DHT22;14965;50.660;13.226;2024-01-11T10:14:43;-2.90;99.90
27224;DHT22;14965;50.660;13.226;2024-01-11T10:17:09;-2.80;99.90
27224;DHT22;14965;50.660;13.226;2024-01-11T10:19:35;-2.60;99.90
27224;DHT22;14965;50.660;13.226;2024-01-11T10:22:01;-2.50;99.90
27224;DHT22;14965;50.660;13.226;2024-01-11T10:24:28;-2.40;99.90
27224;DHT22;14965;50.660;13.226;2024-01-11T10:26:55;-2.30;99.90
27224;DHT22;14965;50.660;13.226;2024-01-11T10:29:21;-2.30;99.90
27224;DHT22;14965;50.660;13.226;2024-01-11T10:31:47;-2.10;99.90
27224;DHT22;14965;50.660;13.226;2024-01-11T10:34:13;-2.00;99.90
27224;DHT22;14965;50.660;13.226;2024-01-11T10:36:40;-1.90;99.90
27224;DHT22;14965;50.660;13.226;2024-01-11T10:39:07;-1.70;99.90
27224;DHT22;14965;50.660;13.226;2024-01-11T10:41:39;-1.60;99.90
27224;DHT22;14965;50.660;13.226;2024-01-11T10:44:07;-1.50;99.90
27224;DHT22;14965;50.660;13.226;2024-01-11T10:46:43;-1.50;99.90
27224;DHT22;14965;50.660;13.226;2024-01-11T10:49:11;-1.40;99.90
27224;DHT22;14965;50.660;13.226;2024-01-11T10:51:45;-1.20;99.90
27224;DHT22;14965;50.660;13.226;2024-01-11T10:54:15;-1.10;99.90
27224;DHT22;14965;50.660;13.226;2024-01-11T10:56:44;-1.00;99.90
27224;DHT22;14965;50.660;13.226;2024-01-11T10:59:10;-0.80;99.90
27224;DHT22;14965;50.660;13.226;2024-01-11T11:01:38;-0.70;99.90
27224;DHT22;14965;50.660;13.226;2024-01-11T11:04:05;-0.50;99.90
27224;DHT22;14965;50.660;13.226;2024-01-11T11:06:34;-0.40;99.90
27224;DHT22;14965;50.660;13.226;2024-01-11T11:09:02;-0.40;99.90
27224;DHT22;14965;50.660;13.226;2024-01-11T11:11:30;-0.50;99.90
27224;DHT22;14965;50.660;13.226;2024-01-11T11:13:59;-0.50;99.90
27224;DHT22;14965;50.660;13.226;2024-01-11T11:16:26;-0.50;99.90
27224;DHT22;14965;50.660;13.226;2024-01-11T11:18:53;-0.50;99.90
27224;DHT22;14965;50.660;13.226;2024-01-11T11:21:20;-0.50;99.90
27224;DHT22;14965;50.660;13.226;2024-01-11T11:23:46;-0.50;99.90
27224;DHT22;14965;50.660;13.226;2024-01-11T11:26:15;-0.40;99.90
27224;DHT22;14965;50.660;13.226;2024-01-11T11:28:41;-0.30;99.90
27224;DHT22;14965;50.660;13.226;2024-01-11T11:31:10;-0.20;99.90
27224;DHT22;14965;50.660;13.226;2024-01-11T11:33:37;0.00;99.90
27224;DHT22;14965;50.660;13.226;2024-01-11T11:36:03;0.10;99.90
27224;DHT22;14965;50.660;13.226;2024-01-11T11:38:30;0.20;99.90
27224;DHT22;14965;50.660;13.226;2024-01-11T11:40:57;0.10;99.90
27224;DHT22;14965;50.660;13.226;2024-01-11T11:43:26;0.00;99.90
27224;DHT22;14965;50.660;13.226;2024-01-11T11:45:53;0.10;99.90
27224;DHT22;14965;50.660;13.226;2024-01-11T11:48:50;0.10;99.90
27224;DHT22;14965;50.660;13.226;2024-01-11T11:51:17;0.00;99.90
27224;DHT22;14965;50.660;13.226;2024-01-11T11:53:43;-0.20;99.90
27224;DHT22;14965;50.660;13.226;2024-01-11T11:56:11;-0.30;99.90
27224;DHT22;14965;50.660;13.226;2024-01-11T11:58:37;-0.40;99.90
27224;DHT22;14965;50.660;13.226;2024-01-11T12:01:04;-0.50;99.90
27224;DHT22;14965;50.660;13.226;2024-01-11T12:03:31;-0.40;99.90
27224;DHT22;14965;50.660;13.226;2024-01-11T12:06:00;-0.30;99.90
27224;DHT22;14965;50.660;13.226;2024-01-11T12:08:27;-0.20;99.90
27224;DHT22;14965;50.660;13.226;2024-01-11T12:10:54;-0.10;99.90
27224;DHT22;14965;50.660;13.226;2024-01-11T12:13:20;0.00;99.90
27224;DHT22;14965;50.660;13.226;2024-01-11T12:15:46;0.00;99.90
27224;DHT22;14965;50.660;13.226;2024-01-11T12:18:12;0.00;99.90
27224;DHT22;14965;50.660;13.226;2024-01-11T12:20:39;0.00;99.90
27224;DHT22;14965;50.660;13.226;2024-01-11T12:23:06;-0.10;99.90
27224;DHT22;14965;50.660;13.226;2024-01-11T12:25:33;0.00;99.90
27224;DHT22;14965;50.660;13.226;2024-01-11T12:28:00;0.00;99.90
27224;DHT22;14965;50.660;13.226;2024-01-11T12:30:26;0.00;99.90
27224;DHT22;14965;50.660;13.226;2024-01-11T12:32:53;0.10;99.90
27224;DHT22;14965;50.660;13.226;2024-01-11T12:35:20;0.20;99.90
27224;DHT22;14965;50.660;13.226;2024-01-11T12:37:52;0.20;99.90
27224;DHT22;14965;50.660;13.226;2024-01-11T12:40:21;0.20;99.90
27224;DHT22;14965;50.660;13.226;2024-01-11T12:42:47;0.10;99.90
27224;DHT22;14965;50.660;13.226;2024-01-11T12:45:13;0.00;99.90
27224;DHT22;14965;50.660;13.226;2024-01-11T12:47:39;-0.10;99.90
27224;DHT22;14965;50.660;13.226;2024-01-11T12:50:06;-0.10;99.90
27224;DHT22;14965;50.660;13.226;2024-01-11T12:52:33;-0.10;99.90
27224;DHT22;14965;50.660;13.226;2024-01-11T12:54:58;-0.10;99.90
27224;DHT22;14965;50.660;13.226;2024-01-11T12:57:26;0.00;99.90
27224;DHT22;14965;50.660;13.226;2024-01-11T12:59:51;0.00;99.90
27224;DHT22;14965;50.660;13.226;2024-01-11T13:02:17;0.10;99.90
27224;DHT22;14965;50.660;13.226;2024-01-11T13:04:43;0.10;99.90
27224;DHT22;14965;50.660;13.226;2024-01-11T13:07:10;0.10;99.90
27224;DHT22;14965;50.660;13.226;2024-01-11T13:09:36;0.20;99.90
27224;DHT22;14965;50.660;13.226;2024-01-11T13:12:02;0.20;99.90
27224;DHT22;14965;50.660;13.226;2024-01-11T13:14:30;0.10;99.90
27224;DHT22;14965;50.660;13.226;2024-01-11T13:16:56;0.00;99.90
27224;DHT22;14965;50.660;13.226;2024-01-11T13:19:22;0.00;99.90
27224;DHT22;14965;50.660;13.226;2024-01-11T13:21:47;0.00;99.90
27224;DHT22;14965;50.660;13.226;2024-01-11T13:24:13;-0.10;99.90
27224;DHT22;14965;50.660;13.226;2024-01-11T13:26:39;-0.10;99.90
27224;DHT22;14965;50.660;13.226;2024-01-11T13:29:06;-0.10;99.90
27224;DHT22;14965;50.660;13.226;2024-01-11T13:31:33;-0.10;99.90
27224;DHT22;14965;50.660;13.226;2024-01-11T13:33:59;-0.10;99.90
27224;DHT22;14965;50.660;13.226;2024-01-11T13:36:25;-0.20;99.90
27224;DHT22;14965;50.660;13.226;2024-01-11T13:38:51;-0.20;99.90
27224;DHT22;14965;50.660;13.226;2024-01-11T13:41:18;-0.20;99.90
27224;DHT22;14965;50.660;13.226;2024-01-11T13:43:44;-0.20;99.90
27224;DHT22;14965;50.660;13.226;2024-01-11T13:46:10;-0.20;99.90
27224;DHT22;14965;50.660;13.226;2024-01-11T13:48:38;-0.20;99.90
27224;DHT22;14965;50.660;13.226;2024-01-11T13:51:04;-0.20;99.90
27224;DHT22;14965;50.660;13.226;2024-01-11T13:53:30;-0.20;99.90
27224;DHT22;14965;50.660;13.226;2024-01-11T13:55:56;-0.20;99.90
27224;DHT22;14965;50.660;13.226;2024-01-11T13:58:22;-0.30;99.90
27224;DHT22;14965;50.660;13.226;2024-01-11T14:00:49;-0.30;99.90
27224;DHT22;14965;50.660;13.226;2024-01-11T14:03:15;-0.40;99.90
27224;DHT22;14965;50.660;13.226;2024-01-11T14:05:42;-0.40;99.90
27224;DHT22;14965;50.660;13.226;2024-01-11T14:08:08;-0.50;99.90
27224;DHT22;14965;50.660;13.226;2024-01-11T14:10:34;-0.50;99.90
27224;DHT22;14965;50.660;13.226;2024-01-11T14:13:00;-0.50;99.90
27224;DHT22;14965;50.660;13.226;2024-01-11T14:15:27;-0.60;99.90
27224;DHT22;14965;50.660;13.226;2024-01-11T14:17:53;-0.60;99.90
27224;DHT22;14965;50.660;13.226;2024-01-11T14:20:20;-0.70;99.90
27224;DHT22;14965;50.660;13.226;2024-01-11T14:22:47;-0.70;99.90
27224;DHT22;14965;50.660;13.226;2024-01-11T14:25:13;-0.80;99.90
27224;DHT22;14965;50.660;13.226;2024-01-11T14:27:40;-0.80;99.90
27224;DHT22;14965;50.660;13.226;2024-01-11T14:30:06;-0.90;99.90
27224;DHT22;14965;50.660;13.226;2024-01-11T14:32:34;-1.00;99.90
27224;DHT22;14965;50.660;13.226;2024-01-11T14:35:00;-1.00;99.90
27224;DHT22;14965;50.660;13.226;2024-01-11T14:37:26;-0.90;99.90
27224;DHT22;14965;50.660;13.226;2024-01-11T14:39:53;-1.00;99.90
27224;DHT22;14965;50.660;13.226;2024-01-11T14:42:19;-1.00;99.90
27224;DHT22;14965;50.660;13.226;2024-01-11T14:44:45;-1.00;99.90
27224;DHT22;14965;50.660;13.226;2024-01-11T14:47:11;-1.00;99.90
27224;DHT22;14965;50.660;13.226;2024-01-11T14:49:37;-1.10;99.90
27224;DHT22;14965;50.660;13.226;2024-01-11T14:52:03;-1.10;99.90
27224;DHT22;14965;50.660;13.226;2024-01-11T14:54:30;-1.10;99.90
27224;DHT22;14965;50.660;13.226;2024-01-11T14:56:58;-1.20;99.90
27224;DHT22;14965;50.660;13.226;2024-01-11T14:59:24;-1.20;99.90
27224;DHT22;14965;50.660;13.226;2024-01-11T15:01:50;-1.20;99.90
27224;DHT22;14965;50.660;13.226;2024-01-11T15:04:16;-1.30;99.90
27224;DHT22;14965;50.660;13.226;2024-01-11T15:06:43;-1.30;99.90
27224;DHT22;14965;50.660;13.226;2024-01-11T15:09:09;-1.30;99.90
27224;DHT22;14965;50.660;13.226;2024-01-11T15:11:35;-1.30;99.90
27224;DHT22;14965;50.660;13.226;2024-01-11T15:14:02;-1.30;99.90